createdAt,value
2019-01-04T00:00:03.246Z,-1
2019-01-04T00:01:02.531Z,-1
2019-01-04T00:02:02.905Z,-1
2019-01-04T00:03:03.190Z,-1
2019-01-04T00:04:02.442Z,-1.06
2019-01-04T00:05:02.771Z,-1.18
2019-01-04T00:06:03.145Z,-1.18
2019-01-04T00:07:02.456Z,-1.25
2019-01-04T00:08:02.831Z,-1.25
2019-01-04T00:09:03.175Z,-1.06
2019-01-04T00:10:02.494Z,-1.06
2019-01-04T00:11:02.768Z,-1.06
2019-01-04T00:12:03.134Z,-1
2019-01-04T00:13:02.455Z,-1
2019-01-04T00:14:02.901Z,-1
2019-01-04T00:15:03.170Z,-1
2019-01-04T00:16:02.455Z,-0.93
2019-01-04T00:17:02.891Z,-0.93
2019-01-04T00:18:03.179Z,-0.93
2019-01-04T00:19:02.490Z,-0.93
2019-01-04T00:20:02.822Z,-0.87
2019-01-04T00:21:03.094Z,-0.87
2019-01-04T00:22:02.363Z,-0.93
2019-01-04T00:23:02.683Z,-0.93
2019-01-04T00:24:03.004Z,-0.93
2019-01-04T00:25:02.307Z,-0.87
2019-01-04T00:26:02.696Z,-0.87
2019-01-04T00:27:03.938Z,-0.87
2019-01-04T00:28:03.255Z,-0.93
2019-01-04T00:29:02.531Z,-0.87
2019-01-04T00:30:02.842Z,-0.87
2019-01-04T00:31:03.221Z,-0.93
2019-01-04T00:32:02.532Z,-0.93
2019-01-04T00:33:02.841Z,-0.93
2019-01-04T00:34:03.154Z,-0.87
2019-01-04T00:35:02.439Z,-0.87
2019-01-04T00:36:02.829Z,-0.87
2019-01-04T00:37:03.085Z,-0.87
2019-01-04T00:38:02.369Z,-0.87
2019-01-04T00:39:02.682Z,-0.87
2019-01-04T00:40:03.010Z,-0.81
2019-01-04T00:41:02.500Z,-0.81
2019-01-04T00:42:02.994Z,-0.81
2019-01-04T00:43:02.381Z,-0.81
2019-01-04T00:44:02.707Z,-0.81
2019-01-04T00:45:03.004Z,-0.81
2019-01-04T00:46:02.306Z,-0.81
2019-01-04T00:47:02.610Z,-0.81
2019-01-04T00:48:02.998Z,-0.75
2019-01-04T00:49:02.328Z,-0.75
2019-01-04T00:50:02.615Z,-0.81
2019-01-04T00:51:02.941Z,-0.75
2019-01-04T00:52:03.280Z,-0.75
2019-01-04T00:53:02.664Z,-0.75
2019-01-04T00:54:02.931Z,-0.75
2019-01-04T00:55:03.246Z,-0.68
2019-01-04T00:56:02.529Z,-0.68
2019-01-04T00:57:02.845Z,-0.68
2019-01-04T00:58:03.233Z,-0.75
2019-01-04T00:59:02.621Z,-0.75
2019-01-04T01:00:02.922Z,-0.75
2019-01-04T01:01:03.257Z,-0.75
2019-01-04T01:02:02.523Z,-0.75
2019-01-04T01:03:02.847Z,-0.75
2019-01-04T01:04:03.235Z,-0.81
2019-01-04T01:05:02.532Z,-0.81
2019-01-04T01:06:02.852Z,-0.75
2019-01-04T01:07:03.172Z,-0.81
2019-01-04T01:08:02.464Z,-0.81
2019-01-04T01:09:02.830Z,-0.81
2019-01-04T01:10:04.020Z,-0.75
2019-01-04T01:11:02.294Z,-0.75
2019-01-04T01:12:02.654Z,-0.81
2019-01-04T01:13:02.931Z,-0.75
2019-01-04T01:14:03.296Z,-0.75
2019-01-04T01:15:02.609Z,-0.75
2019-01-04T01:16:02.952Z,-0.75
2019-01-04T01:17:03.279Z,-0.75
2019-01-04T01:18:02.607Z,-0.68
2019-01-04T01:19:02.931Z,-0.75
2019-01-04T01:20:03.250Z,-0.75
2019-01-04T01:21:02.573Z,-0.81
2019-01-04T01:22:02.864Z,-0.81
2019-01-04T01:23:03.147Z,-0.81
2019-01-04T01:24:02.437Z,-0.81
2019-01-04T01:25:02.769Z,-0.75
2019-01-04T01:26:03.137Z,-0.75
2019-01-04T01:27:02.453Z,-0.68
2019-01-04T01:28:03.658Z,-0.68
2019-01-04T01:29:02.938Z,-0.68
2019-01-04T01:30:03.293Z,-0.68
2019-01-04T01:31:02.609Z,-0.68
2019-01-04T01:32:03.207Z,-0.75
2019-01-04T01:33:03.756Z,-0.75
2019-01-04T01:34:03.395Z,-0.81
2019-01-04T01:35:02.772Z,-0.87
2019-01-04T01:36:03.087Z,-0.93
2019-01-04T01:37:02.517Z,-0.93
2019-01-04T01:38:03.506Z,-0.87
2019-01-04T01:39:02.839Z,-0.75
2019-01-04T01:40:03.183Z,-0.75
2019-01-04T01:41:02.507Z,-0.68
2019-01-04T01:42:02.917Z,-0.68
2019-01-04T01:43:03.337Z,-0.68
2019-01-04T01:44:02.640Z,-0.68
2019-01-04T01:45:04.302Z,-0.68
2019-01-04T01:46:02.816Z,-0.81
2019-01-04T01:47:03.112Z,-0.75
2019-01-04T01:48:02.377Z,-0.68
2019-01-04T01:49:03.191Z,-0.62
2019-01-04T01:50:02.812Z,-0.68
2019-01-04T01:51:03.092Z,-0.68
2019-01-04T01:52:02.380Z,-0.68
2019-01-04T01:53:02.677Z,-0.62
2019-01-04T01:54:03.056Z,-0.62
2019-01-04T01:55:02.491Z,-0.62
2019-01-04T01:56:02.853Z,-0.62
2019-01-04T01:57:03.169Z,-0.56
2019-01-04T01:58:02.469Z,-0.62
2019-01-04T01:59:02.843Z,-0.56
2019-01-04T02:00:04.142Z,-0.56
2019-01-04T02:01:02.464Z,-0.56
2019-01-04T02:02:02.904Z,-0.62
2019-01-04T02:03:03.215Z,-0.62
2019-01-04T02:04:02.543Z,-0.62
2019-01-04T02:05:02.860Z,-0.56
2019-01-04T02:06:03.364Z,-0.62
2019-01-04T02:07:02.781Z,-0.56
2019-01-04T02:08:03.476Z,-0.56
2019-01-04T02:09:07.210Z,-0.56
2019-01-04T02:10:02.911Z,-0.56
2019-01-04T02:11:03.411Z,-0.62
2019-01-04T02:12:02.913Z,-0.56
2019-01-04T02:13:03.360Z,-0.56
2019-01-04T02:14:02.868Z,-0.56
2019-01-04T02:15:03.169Z,-0.68
2019-01-04T02:16:02.457Z,-0.68
2019-01-04T02:17:02.810Z,-0.62
2019-01-04T02:18:03.191Z,-0.75
2019-01-04T02:19:02.539Z,-0.75
2019-01-04T02:20:02.877Z,-0.68
2019-01-04T02:21:03.158Z,-0.68
2019-01-04T02:22:02.450Z,-0.68
2019-01-04T02:23:02.835Z,-0.68
2019-01-04T02:24:03.229Z,-0.62
2019-01-04T02:25:02.528Z,-0.56
2019-01-04T02:26:02.844Z,-0.62
2019-01-04T02:27:03.167Z,-0.56
2019-01-04T02:28:02.513Z,-0.56
2019-01-04T02:29:02.941Z,-0.5
2019-01-04T02:30:03.268Z,-0.56
2019-01-04T02:31:02.686Z,-0.5
2019-01-04T02:32:03.078Z,-0.56
2019-01-04T02:33:02.446Z,-0.56
2019-01-04T02:34:02.830Z,-0.5
2019-01-04T02:35:03.114Z,-0.5
2019-01-04T02:36:02.384Z,-0.43
2019-01-04T02:37:02.744Z,-0.43
2019-01-04T02:38:02.997Z,-0.5
2019-01-04T02:39:02.399Z,-0.5
2019-01-04T02:40:02.694Z,-0.5
2019-01-04T02:41:03.011Z,-0.5
2019-01-04T02:42:02.289Z,-0.5
2019-01-04T02:43:02.632Z,-0.43
2019-01-04T02:44:02.997Z,-0.5
2019-01-04T02:45:02.317Z,-0.5
2019-01-04T02:46:02.736Z,-0.43
2019-01-04T02:47:03.120Z,-0.43
2019-01-04T02:48:02.541Z,-0.5
2019-01-04T02:49:02.856Z,-0.43
2019-01-04T02:50:03.216Z,-0.5
2019-01-04T02:51:02.965Z,-0.5
2019-01-04T02:52:02.292Z,-0.5
2019-01-04T02:53:02.610Z,-0.5
2019-01-04T02:54:02.927Z,-0.43
2019-01-04T02:55:03.355Z,-0.43
2019-01-04T02:56:02.750Z,-0.37
2019-01-04T02:57:03.138Z,-0.37
2019-01-04T02:58:02.581Z,-0.37
2019-01-04T02:59:02.846Z,-0.37
2019-01-04T03:00:03.165Z,-0.43
2019-01-04T03:01:02.460Z,-0.37
2019-01-04T03:02:02.853Z,-0.37
2019-01-04T03:03:03.258Z,-0.43
2019-01-04T03:04:02.524Z,-0.43
2019-01-04T03:05:02.845Z,-0.43
2019-01-04T03:06:03.162Z,-0.43
2019-01-04T03:07:02.466Z,-0.43
2019-01-04T03:08:02.818Z,-0.43
2019-01-04T03:09:03.086Z,-0.43
2019-01-04T03:10:02.379Z,-0.5
2019-01-04T03:11:02.695Z,-0.43
2019-01-04T03:12:03.006Z,-0.43
2019-01-04T03:13:02.314Z,-0.43
2019-01-04T03:14:02.708Z,-0.5
2019-01-04T03:15:03.005Z,-0.56
2019-01-04T03:16:02.285Z,-0.56
2019-01-04T03:17:02.596Z,-0.62
2019-01-04T03:18:02.851Z,-0.62
2019-01-04T03:19:03.223Z,-0.62
2019-01-04T03:20:02.535Z,-0.56
2019-01-04T03:21:02.841Z,-0.56
2019-01-04T03:22:03.180Z,-0.62
2019-01-04T03:23:02.475Z,-0.62
2019-01-04T03:24:02.793Z,-0.62
2019-01-04T03:25:03.142Z,-0.62
2019-01-04T03:26:02.453Z,-0.62
2019-01-04T03:27:02.786Z,-0.68
2019-01-04T03:28:03.085Z,-0.62
2019-01-04T03:29:02.371Z,-0.62
2019-01-04T03:30:02.733Z,-0.56
2019-01-04T03:31:03.074Z,-0.62
2019-01-04T03:32:02.474Z,-0.62
2019-01-04T03:33:02.777Z,-0.56
2019-01-04T03:34:03.174Z,-0.5
2019-01-04T03:35:02.445Z,-0.62
2019-01-04T03:36:02.817Z,-0.62
2019-01-04T03:37:03.092Z,-0.56
2019-01-04T03:38:02.368Z,-0.5
2019-01-04T03:39:02.686Z,-0.5
2019-01-04T03:40:03.008Z,-0.5
2019-01-04T03:41:02.343Z,-0.43
2019-01-04T03:42:02.701Z,-0.43
2019-01-04T03:43:03.087Z,-0.37
2019-01-04T03:44:02.439Z,-0.43
2019-01-04T03:45:02.770Z,-0.37
2019-01-04T03:46:03.098Z,-0.43
2019-01-04T03:47:02.461Z,-0.37
2019-01-04T03:48:02.763Z,-0.43
2019-01-04T03:49:03.094Z,-0.43
2019-01-04T03:50:02.425Z,-0.37
2019-01-04T03:51:02.685Z,-0.37
2019-01-04T03:52:03.074Z,-0.37
2019-01-04T03:53:02.463Z,-0.37
2019-01-04T03:54:02.769Z,-0.37
2019-01-04T03:55:03.085Z,-0.31
2019-01-04T03:56:02.362Z,-0.31
2019-01-04T03:57:02.690Z,-0.31
2019-01-04T03:58:03.069Z,-0.31
2019-01-04T03:59:02.383Z,-0.31
2019-01-04T04:00:02.693Z,-0.31
2019-01-04T04:01:03.008Z,-0.31
2019-01-04T04:02:02.294Z,-0.31
2019-01-04T04:03:02.658Z,-0.31
2019-01-04T04:04:03.033Z,-0.31
2019-01-04T04:05:02.403Z,-0.31
2019-01-04T04:06:02.679Z,-0.31
2019-01-04T04:07:03.026Z,-0.31
2019-01-04T04:08:02.283Z,-0.31
2019-01-04T04:09:02.616Z,-0.31
2019-01-04T04:10:03.007Z,-0.31
2019-01-04T04:11:02.281Z,-0.31
2019-01-04T04:12:02.606Z,-0.37
2019-01-04T04:13:02.930Z,-0.37
2019-01-04T04:14:03.257Z,-0.37
2019-01-04T04:15:02.543Z,-0.31
2019-01-04T04:16:02.913Z,-0.31
2019-01-04T04:17:03.247Z,-0.31
2019-01-04T04:18:02.533Z,-0.31
2019-01-04T04:19:02.840Z,-0.31
2019-01-04T04:20:03.226Z,-0.37
2019-01-04T04:21:02.580Z,-0.37
2019-01-04T04:22:02.894Z,-0.31
2019-01-04T04:23:03.162Z,-0.31
2019-01-04T04:24:02.439Z,-0.31
2019-01-04T04:25:02.774Z,-0.31
2019-01-04T04:26:03.082Z,-0.25
2019-01-04T04:27:02.386Z,-0.25
2019-01-04T04:28:02.772Z,-0.25
2019-01-04T04:29:03.137Z,-0.25
2019-01-04T04:30:02.443Z,-0.31
2019-01-04T04:31:02.779Z,-0.31
2019-01-04T04:32:03.101Z,-0.25
2019-01-04T04:33:02.373Z,-0.25
2019-01-04T04:34:02.741Z,-0.25
2019-01-04T04:35:03.066Z,-0.25
2019-01-04T04:36:02.375Z,-0.25
2019-01-04T04:37:03.564Z,-0.25
2019-01-04T04:38:02.847Z,-0.25
2019-01-04T04:39:03.217Z,-0.25
2019-01-04T04:40:02.546Z,-0.25
2019-01-04T04:41:02.841Z,-0.25
2019-01-04T04:42:03.167Z,-0.25
2019-01-04T04:43:02.513Z,-0.18
2019-01-04T04:44:02.762Z,-0.25
2019-01-04T04:45:03.135Z,-0.25
2019-01-04T04:46:02.458Z,-0.25
2019-01-04T04:47:02.770Z,-0.25
2019-01-04T04:48:03.082Z,-0.18
2019-01-04T04:49:03.267Z,-0.18
2019-01-04T04:50:02.542Z,-0.25
2019-01-04T04:51:02.902Z,-0.18
2019-01-04T04:52:03.168Z,-0.18
2019-01-04T04:53:02.453Z,-0.25
2019-01-04T04:54:02.764Z,-0.18
2019-01-04T04:55:03.086Z,-0.18
2019-01-04T04:56:02.525Z,-0.18
2019-01-04T04:57:03.736Z,-0.18
2019-01-04T04:58:03.000Z,-0.18
2019-01-04T04:59:02.284Z,-0.18
2019-01-04T05:00:02.609Z,-0.18
2019-01-04T05:01:02.989Z,-0.18
2019-01-04T05:02:02.280Z,-0.12
2019-01-04T05:03:02.602Z,-0.12
2019-01-04T05:04:02.930Z,-0.12
2019-01-04T05:05:03.270Z,-0.12
2019-01-04T05:06:02.616Z,-0.18
2019-01-04T05:07:02.979Z,-0.18
2019-01-04T05:08:02.298Z,-0.18
2019-01-04T05:09:02.592Z,-0.18
2019-01-04T05:10:02.921Z,-0.18
2019-01-04T05:11:03.262Z,-0.12
2019-01-04T05:12:02.537Z,-0.12
2019-01-04T05:13:02.913Z,-0.12
2019-01-04T05:14:04.125Z,-0.12
2019-01-04T05:15:02.457Z,-0.12
2019-01-04T05:16:02.771Z,-0.18
2019-01-04T05:17:03.086Z,-0.18
2019-01-04T05:18:02.428Z,-0.18
2019-01-04T05:19:02.743Z,-0.12
2019-01-04T05:20:03.016Z,-0.12
2019-01-04T05:21:02.292Z,-0.12
2019-01-04T05:22:02.661Z,-0.12
2019-01-04T05:23:03.025Z,-0.18
2019-01-04T05:24:02.434Z,-0.18
2019-01-04T05:25:02.745Z,-0.18
2019-01-04T05:26:03.165Z,-0.18
2019-01-04T05:27:02.446Z,-0.18
2019-01-04T05:28:02.761Z,-0.18
2019-01-04T05:29:03.143Z,-0.18
2019-01-04T05:30:02.442Z,-0.12
2019-01-04T05:31:02.762Z,-0.12
2019-01-04T05:32:03.086Z,-0.18
2019-01-04T05:33:02.382Z,-0.18
2019-01-04T05:34:02.702Z,-0.18
2019-01-04T05:35:03.062Z,-0.18
2019-01-04T05:36:02.365Z,-0.18
2019-01-04T05:37:02.692Z,-0.18
2019-01-04T05:38:03.016Z,-0.18
2019-01-04T05:39:02.486Z,-0.12
2019-01-04T05:40:03.739Z,-0.18
2019-01-04T05:41:03.941Z,-0.12
2019-01-04T05:42:03.246Z,-0.12
2019-01-04T05:43:02.532Z,-0.18
2019-01-04T05:44:02.867Z,-0.18
2019-01-04T05:45:03.222Z,-0.18
2019-01-04T05:46:02.582Z,-0.18
2019-01-04T05:47:02.855Z,-0.18
2019-01-04T05:48:03.199Z,-0.18
2019-01-04T05:49:02.549Z,-0.18
2019-01-04T05:50:02.844Z,-0.18
2019-01-04T05:51:03.217Z,-0.18
2019-01-04T05:52:02.540Z,-0.18
2019-01-04T05:53:02.840Z,-0.18
2019-01-04T05:54:03.264Z,-0.18
2019-01-04T05:55:02.622Z,-0.18
2019-01-04T05:56:03.005Z,-0.25
2019-01-04T05:57:02.293Z,-0.25
2019-01-04T05:58:02.610Z,-0.18
2019-01-04T05:59:02.920Z,-0.25
2019-01-04T06:00:03.278Z,-0.25
2019-01-04T06:01:02.937Z,-0.25
2019-01-04T06:02:03.257Z,-0.25
2019-01-04T06:03:02.538Z,-0.25
2019-01-04T06:04:02.859Z,-0.18
2019-01-04T06:05:03.162Z,-0.25
2019-01-04T06:06:02.442Z,-0.18
2019-01-04T06:07:02.882Z,-0.18
2019-01-04T06:08:03.177Z,-0.18
2019-01-04T06:09:02.457Z,-0.18
2019-01-04T06:10:02.824Z,-0.25
2019-01-04T06:11:03.092Z,-0.25
2019-01-04T06:12:02.367Z,-0.18
2019-01-04T06:13:02.742Z,-0.18
2019-01-04T06:14:03.008Z,-0.18
2019-01-04T06:15:02.286Z,-0.18
2019-01-04T06:16:02.613Z,-0.18
2019-01-04T06:17:02.924Z,-0.18
2019-01-04T06:18:03.413Z,-0.12
2019-01-04T06:19:02.699Z,-0.18
2019-01-04T06:20:03.013Z,-0.18
2019-01-04T06:21:02.287Z,-0.18
2019-01-04T06:22:02.601Z,-0.18
2019-01-04T06:23:02.941Z,-0.12
2019-01-04T06:24:04.222Z,-0.12
2019-01-04T06:25:02.519Z,-0.18
2019-01-04T06:26:02.897Z,-0.12
2019-01-04T06:27:03.172Z,-0.18
2019-01-04T06:28:02.454Z,-0.18
2019-01-04T06:29:02.781Z,-0.18
2019-01-04T06:30:03.139Z,-0.12
2019-01-04T06:31:02.458Z,-0.12
2019-01-04T06:32:02.764Z,-0.12
2019-01-04T06:33:03.087Z,-0.18
2019-01-04T06:34:02.375Z,-0.18
2019-01-04T06:35:02.751Z,-0.12
2019-01-04T06:36:03.145Z,-0.12
2019-01-04T06:37:03.419Z,-0.12
2019-01-04T06:38:02.700Z,-0.18
2019-01-04T06:39:02.992Z,-0.12
2019-01-04T06:40:02.289Z,-0.18
2019-01-04T06:41:02.627Z,-0.12
2019-01-04T06:42:03.028Z,-0.12
2019-01-04T06:43:02.370Z,-0.12
2019-01-04T06:44:03.088Z,-0.12
2019-01-04T06:45:02.439Z,-0.12
2019-01-04T06:46:02.774Z,-0.12
2019-01-04T06:47:03.093Z,-0.12
2019-01-04T06:48:02.457Z,-0.12
2019-01-04T06:49:02.880Z,-0.18
2019-01-04T06:50:03.178Z,-0.12
2019-01-04T06:51:02.442Z,-0.12
2019-01-04T06:52:02.763Z,-0.12
2019-01-04T06:53:03.134Z,-0.12
2019-01-04T06:54:02.440Z,-0.12
2019-01-04T06:55:02.768Z,-0.12
2019-01-04T06:56:03.093Z,-0.12
2019-01-04T06:57:02.431Z,-0.06
2019-01-04T06:58:02.710Z,-0.12
2019-01-04T06:59:03.064Z,-0.12
2019-01-04T07:00:02.380Z,-0.06
2019-01-04T07:01:02.679Z,-0.12
2019-01-04T07:02:03.010Z,-0.12
2019-01-04T07:03:02.286Z,-0.12
2019-01-04T07:04:02.619Z,-0.12
2019-01-04T07:05:02.976Z,-0.12
2019-01-04T07:06:02.277Z,-0.12
2019-01-04T07:07:02.605Z,-0.12
2019-01-04T07:08:02.919Z,-0.06
2019-01-04T07:09:04.135Z,0
2019-01-04T07:10:02.503Z,-0.06
2019-01-04T07:11:02.855Z,-0.06
2019-01-04T07:12:03.240Z,-0.06
2019-01-04T07:13:02.536Z,-0.12
2019-01-04T07:14:02.862Z,-0.06
2019-01-04T07:15:03.161Z,-0.06
2019-01-04T07:16:02.619Z,-0.06
2019-01-04T07:17:03.796Z,-0.06
2019-01-04T07:18:03.102Z,-0.06
2019-01-04T07:19:02.366Z,-0.06
2019-01-04T07:20:02.738Z,0
2019-01-04T07:21:03.063Z,0
2019-01-04T07:22:02.362Z,0
2019-01-04T07:23:02.678Z,0
2019-01-04T07:24:03.005Z,0
2019-01-04T07:25:02.295Z,-0.06
2019-01-04T07:26:02.611Z,0
2019-01-04T07:27:02.986Z,0
2019-01-04T07:28:02.303Z,-0.06
2019-01-04T07:29:02.616Z,0
2019-01-04T07:30:02.952Z,0
2019-01-04T07:31:03.248Z,0
2019-01-04T07:32:02.586Z,0
2019-01-04T07:33:02.913Z,0
2019-01-04T07:34:03.182Z,0.06
2019-01-04T07:35:02.454Z,0.06
2019-01-04T07:36:02.823Z,0.06
2019-01-04T07:37:03.080Z,0
2019-01-04T07:38:02.374Z,0.06
2019-01-04T07:39:02.745Z,0.06
2019-01-04T07:40:03.961Z,0.06
2019-01-04T07:41:02.355Z,0.06
2019-01-04T07:42:02.716Z,0.06
2019-01-04T07:43:03.024Z,0.06
2019-01-04T07:44:02.285Z,0.12
2019-01-04T07:45:02.694Z,0.12
2019-01-04T07:46:03.001Z,0.12
2019-01-04T07:47:02.286Z,0.12
2019-01-04T07:48:02.613Z,0.12
2019-01-04T07:49:02.933Z,0.12
2019-01-04T07:50:03.302Z,0.12
2019-01-04T07:51:02.604Z,0.12
2019-01-04T07:52:02.992Z,0.12
2019-01-04T07:53:02.282Z,0.18
2019-01-04T07:54:02.604Z,0.18
2019-01-04T07:55:02.944Z,0.18
2019-01-04T07:56:03.304Z,0.18
2019-01-04T07:57:02.623Z,0.18
2019-01-04T07:58:02.981Z,0.12
2019-01-04T07:59:02.377Z,0.18
2019-01-04T08:00:02.698Z,0.18
2019-01-04T08:01:03.052Z,0.18
2019-01-04T08:02:02.413Z,0.18
2019-01-04T08:03:02.698Z,0.18
2019-01-04T08:04:03.002Z,0.18
2019-01-04T08:05:02.368Z,0.18
2019-01-04T08:06:02.699Z,0.18
2019-01-04T08:07:03.054Z,0.25
2019-01-04T08:08:02.427Z,0.25
2019-01-04T08:09:02.696Z,0.18
2019-01-04T08:10:03.049Z,0.25
2019-01-04T08:11:02.380Z,0.25
2019-01-04T08:12:02.682Z,0.25
2019-01-04T08:13:03.072Z,0.25
2019-01-04T08:14:02.378Z,0.31
2019-01-04T08:15:02.691Z,0.25
2019-01-04T08:16:03.011Z,0.31
2019-01-04T08:17:02.278Z,0.31
2019-01-04T08:18:02.615Z,0.31
2019-01-04T08:19:02.984Z,0.31
2019-01-04T08:20:02.292Z,0.31
2019-01-04T08:21:02.606Z,0.31
2019-01-04T08:22:02.927Z,0.37
2019-01-04T08:23:03.368Z,0.31
2019-01-04T08:24:02.691Z,0.31
2019-01-04T08:25:03.102Z,0.31
2019-01-04T08:26:02.363Z,0.37
2019-01-04T08:27:02.695Z,0.37
2019-01-04T08:28:03.018Z,0.37
2019-01-04T08:29:02.295Z,0.37
2019-01-04T08:30:02.618Z,0.37
2019-01-04T08:31:02.985Z,0.37
2019-01-04T08:32:02.287Z,0.37
2019-01-04T08:33:02.634Z,0.37
2019-01-04T08:34:02.919Z,0.37
2019-01-04T08:35:03.241Z,0.43
2019-01-04T08:36:02.537Z,0.43
2019-01-04T08:37:02.907Z,0.43
2019-01-04T08:38:03.222Z,0.43
2019-01-04T08:39:02.576Z,0.5
2019-01-04T08:40:02.865Z,0.5
2019-01-04T08:41:03.164Z,0.5
2019-01-04T08:42:02.492Z,0.5
2019-01-04T08:43:02.862Z,0.5
2019-01-04T08:44:03.181Z,0.5
2019-01-04T08:45:02.439Z,0.5
2019-01-04T08:46:02.779Z,0.56
2019-01-04T08:47:03.084Z,0.56
2019-01-04T08:48:02.377Z,0.56
2019-01-04T08:49:02.742Z,0.62
2019-01-04T08:50:03.009Z,0.62
2019-01-04T08:51:02.285Z,0.62
2019-01-04T08:52:02.602Z,0.68
2019-01-04T08:53:02.925Z,0.68
2019-01-04T08:54:03.328Z,0.68
2019-01-04T08:55:02.600Z,0.75
2019-01-04T08:56:03.806Z,0.75
2019-01-04T08:57:03.152Z,0.81
2019-01-04T08:58:02.444Z,0.81
2019-01-04T08:59:02.776Z,0.81
2019-01-04T09:00:03.184Z,0.81
2019-01-04T09:01:03.349Z,0.81
2019-01-04T09:02:02.683Z,0.87
2019-01-04T09:03:03.004Z,0.81
2019-01-04T09:04:02.295Z,0.87
2019-01-04T09:05:02.617Z,0.87
2019-01-04T09:06:02.986Z,0.87
2019-01-04T09:07:02.302Z,0.87
2019-01-04T09:08:02.602Z,0.87
2019-01-04T09:09:02.942Z,0.87
2019-01-04T09:10:03.297Z,0.81
2019-01-04T09:11:02.689Z,0.87
2019-01-04T09:12:03.004Z,0.87
2019-01-04T09:13:03.171Z,0.87
2019-01-04T09:14:02.454Z,0.87
2019-01-04T09:15:02.772Z,0.87
2019-01-04T09:16:03.108Z,0.87
2019-01-04T09:17:02.509Z,0.87
2019-01-04T09:18:02.851Z,0.93
2019-01-04T09:19:03.161Z,0.93
2019-01-04T09:20:02.457Z,1
2019-01-04T09:21:02.785Z,1
2019-01-04T09:22:03.152Z,1
2019-01-04T09:23:02.453Z,1
2019-01-04T09:24:03.649Z,1
2019-01-04T09:25:02.930Z,1.06
2019-01-04T09:26:03.374Z,1.06
2019-01-04T09:27:02.739Z,1.06
2019-01-04T09:28:03.082Z,1.06
2019-01-04T09:29:02.366Z,1.06
2019-01-04T09:30:02.686Z,1.06
2019-01-04T09:31:03.000Z,1.12
2019-01-04T09:32:02.298Z,1.12
2019-01-04T09:33:02.611Z,1.06
2019-01-04T09:34:02.955Z,1.12
2019-01-04T09:35:03.246Z,1.12
2019-01-04T09:36:02.526Z,1.12
2019-01-04T09:37:02.845Z,1.12
2019-01-04T09:38:03.216Z,1.12
2019-01-04T09:39:03.334Z,1.18
2019-01-04T09:40:02.771Z,1.18
2019-01-04T09:41:03.104Z,1.25
2019-01-04T09:42:02.436Z,1.31
2019-01-04T09:43:02.764Z,1.25
2019-01-04T09:44:03.136Z,1.31
2019-01-04T09:45:02.456Z,1.25
2019-01-04T09:46:02.765Z,1.31
2019-01-04T09:47:03.082Z,1.25
2019-01-04T09:48:02.357Z,1.25
2019-01-04T09:49:02.700Z,1.31
2019-01-04T09:50:03.097Z,1.25
2019-01-04T09:51:03.379Z,1.31
2019-01-04T09:52:02.688Z,1.31
2019-01-04T09:53:03.006Z,1.31
2019-01-04T09:54:02.292Z,1.25
2019-01-04T09:55:02.609Z,1.31
2019-01-04T09:56:02.981Z,1.25
2019-01-04T09:57:02.369Z,1.25
2019-01-04T09:58:02.782Z,1.31
2019-01-04T09:59:03.089Z,1.31
2019-01-04T10:00:02.367Z,1.25
2019-01-04T10:01:02.683Z,1.25
2019-01-04T10:02:03.086Z,1.25
2019-01-04T10:03:02.351Z,1.31
2019-01-04T10:04:02.606Z,1.25
2019-01-04T10:05:02.941Z,1.25
2019-01-04T10:06:03.251Z,1.31
2019-01-04T10:07:02.545Z,1.31
2019-01-04T10:08:02.896Z,1.31
2019-01-04T10:09:03.164Z,1.31
2019-01-04T10:10:02.446Z,1.31
2019-01-04T10:11:02.760Z,1.31
2019-01-04T10:12:03.081Z,1.31
2019-01-04T10:13:02.450Z,1.31
2019-01-04T10:14:02.884Z,1.31
2019-01-04T10:15:03.179Z,1.31
2019-01-04T10:16:02.442Z,1.31
2019-01-04T10:17:02.764Z,1.31
2019-01-04T10:18:03.084Z,1.31
2019-01-04T10:19:04.271Z,1.31
2019-01-04T10:20:02.526Z,1.31
2019-01-04T10:21:02.849Z,1.31
2019-01-04T10:22:03.161Z,1.31
2019-01-04T10:23:02.451Z,1.31
2019-01-04T10:24:02.872Z,1.37
2019-01-04T10:25:03.220Z,1.31
2019-01-04T10:26:02.535Z,1.37
2019-01-04T10:27:02.854Z,1.37
2019-01-04T10:28:03.184Z,1.37
2019-01-04T10:29:02.448Z,1.37
2019-01-04T10:30:02.926Z,1.37
2019-01-04T10:31:02.337Z,1.37
2019-01-04T10:32:02.616Z,1.37
2019-01-04T10:33:02.955Z,1.37
2019-01-04T10:34:03.249Z,1.43
2019-01-04T10:35:02.525Z,1.43
2019-01-04T10:36:02.945Z,1.43
2019-01-04T10:37:03.243Z,1.37
2019-01-04T10:38:02.539Z,1.43
2019-01-04T10:39:02.854Z,1.5
2019-01-04T10:40:03.164Z,1.5
2019-01-04T10:41:02.505Z,1.5
2019-01-04T10:42:02.767Z,1.5
2019-01-04T10:43:03.100Z,1.5
2019-01-04T10:44:02.366Z,1.56
2019-01-04T10:45:02.693Z,1.56
2019-01-04T10:46:03.180Z,1.56
2019-01-04T10:47:02.498Z,1.5
2019-01-04T10:48:02.768Z,1.56
2019-01-04T10:49:03.089Z,1.56
2019-01-04T10:50:02.375Z,1.56
2019-01-04T10:51:02.707Z,1.56
2019-01-04T10:52:03.068Z,1.56
2019-01-04T10:53:02.361Z,1.56
2019-01-04T10:54:02.689Z,1.56
2019-01-04T10:55:03.008Z,1.56
2019-01-04T10:56:02.289Z,1.56
2019-01-04T10:57:02.648Z,1.56
2019-01-04T10:58:02.978Z,1.56
2019-01-04T10:59:02.318Z,1.56
2019-01-04T11:00:02.632Z,1.56
2019-01-04T11:01:03.090Z,1.56
2019-01-04T11:02:02.367Z,1.56
2019-01-04T11:03:02.739Z,1.56
2019-01-04T11:04:03.065Z,1.56
2019-01-04T11:05:02.373Z,1.62
2019-01-04T11:06:02.694Z,1.62
2019-01-04T11:07:03.035Z,1.62
2019-01-04T11:08:02.376Z,1.62
2019-01-04T11:09:02.689Z,1.56
2019-01-04T11:10:03.071Z,1.56
2019-01-04T11:11:02.385Z,1.56
2019-01-04T11:12:02.683Z,1.56
2019-01-04T11:13:03.010Z,1.56
2019-01-04T11:14:02.298Z,1.56
2019-01-04T11:15:02.658Z,1.56
2019-01-04T11:16:02.974Z,1.56
2019-01-04T11:17:02.340Z,1.56
2019-01-04T11:18:03.349Z,1.56
2019-01-04T11:19:02.769Z,1.56
2019-01-04T11:20:03.090Z,1.56
2019-01-04T11:21:03.491Z,1.56
2019-01-04T11:22:02.763Z,1.62
2019-01-04T11:23:03.101Z,1.62
2019-01-04T11:24:02.386Z,1.62
2019-01-04T11:25:02.683Z,1.62
2019-01-04T11:26:03.024Z,1.62
2019-01-04T11:27:02.487Z,1.56
2019-01-04T11:28:02.766Z,1.62
2019-01-04T11:29:03.091Z,1.56
2019-01-04T11:30:02.365Z,1.56
2019-01-04T11:31:02.689Z,1.62
2019-01-04T11:32:03.142Z,1.62
2019-01-04T11:33:02.438Z,1.62
2019-01-04T11:34:02.772Z,1.62
2019-01-04T11:35:03.135Z,1.62
2019-01-04T11:36:02.454Z,1.62
2019-01-04T11:37:02.771Z,1.62
2019-01-04T11:38:03.178Z,1.68
2019-01-04T11:39:02.451Z,1.68
2019-01-04T11:40:02.760Z,1.68
2019-01-04T11:41:03.095Z,1.68
2019-01-04T11:42:02.359Z,1.62
2019-01-04T11:43:02.742Z,1.68
2019-01-04T11:44:03.106Z,1.62
2019-01-04T11:45:02.369Z,1.62
2019-01-04T11:46:03.563Z,1.62
2019-01-04T11:47:02.976Z,1.62
2019-01-04T11:48:02.285Z,1.62
2019-01-04T11:49:02.617Z,1.62
2019-01-04T11:50:03.011Z,1.62
2019-01-04T11:51:02.461Z,1.62
2019-01-04T11:52:02.773Z,1.62
2019-01-04T11:53:03.102Z,1.62
2019-01-04T11:54:02.387Z,1.62
2019-01-04T11:55:02.703Z,1.62
2019-01-04T11:56:03.100Z,1.62
2019-01-04T11:57:02.368Z,1.62
2019-01-04T11:58:02.769Z,1.62
2019-01-04T11:59:03.097Z,1.62
2019-01-04T12:00:02.364Z,1.62
2019-01-04T12:01:02.707Z,1.62
2019-01-04T12:02:03.257Z,1.62
2019-01-04T12:03:02.519Z,1.62
2019-01-04T12:04:02.858Z,1.68
2019-01-04T12:05:03.165Z,1.68
2019-01-04T12:06:02.456Z,1.68
2019-01-04T12:07:02.788Z,1.62
2019-01-04T12:08:03.254Z,1.68
2019-01-04T12:09:02.624Z,1.68
2019-01-04T12:10:02.924Z,1.68
2019-01-04T12:11:03.323Z,1.68
2019-01-04T12:12:02.605Z,1.68
2019-01-04T12:13:02.931Z,1.68
2019-01-04T12:14:03.308Z,1.68
2019-01-04T12:15:02.611Z,1.68
2019-01-04T12:16:03.007Z,1.68
2019-01-04T12:17:02.285Z,1.68
2019-01-04T12:18:02.704Z,1.68
2019-01-04T12:19:03.014Z,1.62
2019-01-04T12:20:02.319Z,1.68
2019-01-04T12:21:02.691Z,1.68
2019-01-04T12:22:03.024Z,1.68
2019-01-04T12:23:02.282Z,1.68
2019-01-04T12:24:02.601Z,1.68
2019-01-04T12:25:02.947Z,1.62
2019-01-04T12:26:03.248Z,1.68
2019-01-04T12:27:02.528Z,1.68
2019-01-04T12:28:02.845Z,1.68
2019-01-04T12:29:04.043Z,1.75
2019-01-04T12:30:02.414Z,1.68
2019-01-04T12:31:02.706Z,1.68
2019-01-04T12:32:03.003Z,1.68
2019-01-04T12:33:02.403Z,1.75
2019-01-04T12:34:02.690Z,1.68
2019-01-04T12:35:03.019Z,1.68
2019-01-04T12:36:02.320Z,1.68
2019-01-04T12:37:02.603Z,1.68
2019-01-04T12:38:02.923Z,1.68
2019-01-04T12:39:03.252Z,1.75
2019-01-04T12:40:02.550Z,1.68
2019-01-04T12:41:02.962Z,1.68
2019-01-04T12:42:02.306Z,1.68
2019-01-04T12:43:02.611Z,1.75
2019-01-04T12:44:02.934Z,1.75
2019-01-04T12:45:03.244Z,1.75
2019-01-04T12:46:02.587Z,1.68
2019-01-04T12:47:02.936Z,1.68
2019-01-04T12:48:03.303Z,1.75
2019-01-04T12:49:02.605Z,1.75
2019-01-04T12:50:02.921Z,1.75
2019-01-04T12:51:03.262Z,1.68
2019-01-04T12:52:02.585Z,1.75
2019-01-04T12:53:02.896Z,1.75
2019-01-04T12:54:03.239Z,1.81
2019-01-04T12:55:02.583Z,1.81
2019-01-04T12:56:02.837Z,1.81
2019-01-04T12:57:03.165Z,1.81
2019-01-04T12:58:02.460Z,1.81
2019-01-04T12:59:02.825Z,1.81
2019-01-04T13:00:03.171Z,1.81
2019-01-04T13:01:02.470Z,1.81
2019-01-04T13:02:02.776Z,1.81
2019-01-04T13:03:03.107Z,1.81
2019-01-04T13:04:02.415Z,1.81
2019-01-04T13:05:02.935Z,1.81
2019-01-04T13:06:03.256Z,1.81
2019-01-04T13:07:02.540Z,1.81